createdAt,value
2023-05-14T00:01:12.424Z,100763.84
2023-05-14T00:11:16.196Z,100771.56
2023-05-14T00:21:20.588Z,100778.94
2023-05-14T00:31:24.228Z,100786.25
2023-05-14T00:41:29.194Z,100792.56
2023-05-14T00:51:32.252Z,100797.06
2023-05-14T01:01:37.462Z,100803.78
2023-05-14T01:11:49.142Z,100810.69
2023-05-14T01:21:53.989Z,100818.16
2023-05-14T01:32:00.971Z,100825.50
2023-05-14T01:42:07.260Z,100832.81
2023-05-14T01:52:11.258Z,100840.38
2023-05-14T02:02:15.784Z,100847.59
2023-05-14T02:12:18.844Z,100854.63
2023-05-14T02:22:23.346Z,100860.72
2023-05-14T02:32:26.350Z,100865.53
2023-05-14T02:42:31.066Z,100871.59
2023-05-14T02:52:34.926Z,100878.06
2023-05-14T03:02:40.384Z,100882.75
2023-05-14T03:12:43.695Z,100887.19
2023-05-14T03:22:48.445Z,100893.94
2023-05-14T03:32:51.668Z,100900.94
2023-05-14T03:42:56.402Z,100906.84
2023-05-14T03:52:59.341Z,100913.63
2023-05-14T04:03:04.028Z,100920.03
2023-05-14T04:13:07.611Z,100926.06
2023-05-14T04:23:12.647Z,100932.53
2023-05-14T04:33:16.073Z,100937.88
2023-05-14T04:43:21.057Z,100942.97
2023-05-14T04:53:24.731Z,100946.38
2023-05-14T05:03:30.231Z,100952.16
2023-05-14T05:13:33.260Z,100956.31
2023-05-14T05:23:37.796Z,100961.06
2023-05-14T05:33:41.073Z,100965.91
2023-05-14T05:43:45.735Z,100970.25
2023-05-14T05:53:49.357Z,100973.84
2023-05-14T06:03:56.798Z,100977.88
2023-05-14T06:14:04.441Z,100980.41
2023-05-14T06:24:12.735Z,100982.69
2023-05-14T06:34:17.068Z,100985.75
2023-05-14T06:44:21.505Z,100986.41
2023-05-14T06:54:24.418Z,100989.41
2023-05-14T07:04:38.534Z,100990.44
2023-05-14T07:14:41.678Z,100992.81
2023-05-14T07:24:46.668Z,100995.91
2023-05-14T07:34:52.218Z,100999.66
2023-05-14T07:44:59.649Z,101001.84
2023-05-14T07:55:03.695Z,101005.16
2023-05-14T08:05:10.327Z,101009.38
2023-05-14T08:15:13.450Z,101013.63
2023-05-14T08:25:18.088Z,101017.66
2023-05-14T08:35:21.286Z,101019.28
2023-05-14T08:45:34.194Z,101021.66
2023-05-14T08:55:38.457Z,101024.81
2023-05-14T09:05:43.116Z,101027.72
2023-05-14T09:15:48.810Z,101028.59
2023-05-14T09:25:53.543Z,101031.13
2023-05-14T09:36:00.019Z,101034.44
2023-05-14T09:46:04.690Z,101036.56
2023-05-14T09:56:08.375Z,101038.88
2023-05-14T10:06:15.393Z,101040.34
2023-05-14T10:16:32.387Z,101041.72
2023-05-14T10:26:39.643Z,101043.97
2023-05-14T10:36:42.824Z,101044.41
2023-05-14T10:46:47.472Z,101046.69
2023-05-14T10:56:50.455Z,101046.38
2023-05-14T11:06:56.995Z,101048.84
2023-05-14T11:17:00.909Z,101046.69
2023-05-14T11:27:08.643Z,101047.91
2023-05-14T11:37:13.208Z,101048.06
2023-05-14T11:47:19.317Z,101051.47
2023-05-14T11:57:23.545Z,101053.88
2023-05-14T12:07:30.771Z,101056.00
2023-05-14T12:17:33.743Z,101057.88
2023-05-14T12:27:38.944Z,101057.72
2023-05-14T12:37:43.974Z,101059.19
2023-05-14T12:47:48.660Z,101060.59
2023-05-14T12:57:51.681Z,101061.06
2023-05-14T13:08:02.452Z,101063.06
2023-05-14T13:18:05.858Z,101063.59
2023-05-14T13:28:13.563Z,101063.06
2023-05-14T13:38:19.520Z,101063.28
2023-05-14T13:48:24.782Z,101064.38
2023-05-14T13:58:28.357Z,101066.16
2023-05-14T14:08:36.257Z,101067.34
2023-05-14T14:18:39.352Z,101069.50
2023-05-14T14:28:43.910Z,101071.94
2023-05-14T14:38:47.021Z,101074.09
2023-05-14T14:48:51.945Z,101075.50
2023-05-14T14:58:55.710Z,101076.50
2023-05-14T15:09:00.278Z,101075.25
2023-05-14T15:19:03.297Z,101076.41
2023-05-14T15:29:11.679Z,101077.78
2023-05-14T15:39:15.875Z,101077.66
2023-05-14T15:49:20.986Z,101078.31
2023-05-14T15:59:26.655Z,101079.88
2023-05-14T16:09:35.006Z,101075.66
2023-05-14T16:19:39.486Z,101076.56
2023-05-14T16:29:45.458Z,101077.66
2023-05-14T16:39:50.027Z,101079.06
2023-05-14T16:49:57.824Z,101079.19
2023-05-14T17:00:01.586Z,101080.25
2023-05-14T17:22:13.262Z,101088.41
2023-05-14T17:32:16.800Z,101090.56
2023-05-14T17:42:22.192Z,101096.41
2023-05-14T17:52:28.056Z,101101.38
2023-05-14T18:02:33.300Z,101106.72
2023-05-14T18:12:36.322Z,101109.25
2023-05-14T18:22:43.359Z,101115.22
2023-05-14T18:32:47.982Z,101118.75
2023-05-14T18:42:57.259Z,101123.31
2023-05-14T18:53:00.230Z,101130.38
2023-05-14T19:03:04.785Z,101135.69
2023-05-14T19:13:08.137Z,101140.59
2023-05-14T19:23:12.526Z,101146.56
2023-05-14T19:33:15.450Z,101152.22
2023-05-14T19:43:20.253Z,101157.72
2023-05-14T19:53:29.757Z,101163.38
2023-05-14T20:03:35.116Z,101168.81
2023-05-14T20:13:38.457Z,101173.69
2023-05-14T20:23:43.505Z,101177.69
2023-05-14T20:33:52.301Z,101181.78
2023-05-14T20:44:00.607Z,101185.16
2023-05-14T20:54:03.712Z,101185.56
2023-05-14T21:04:08.181Z,101189.34
2023-05-14T21:14:11.408Z,101192.13
2023-05-14T21:24:17.061Z,101195.03
2023-05-14T21:34:20.083Z,101197.50
2023-05-14T21:44:24.537Z,101200.00
2023-05-14T21:54:27.537Z,101202.31
2023-05-14T22:04:31.954Z,101204.41
2023-05-14T22:14:34.937Z,101206.34
2023-05-14T22:24:39.285Z,101208.03
2023-05-14T22:34:42.087Z,101210.03
2023-05-14T22:44:46.419Z,101211.91
2023-05-14T22:54:51.787Z,101214.13
2023-05-14T23:04:56.197Z,101216.69
2023-05-14T23:14:59.520Z,101218.81
2023-05-14T23:25:04.083Z,101220.72
2023-05-14T23:35:07.646Z,101222.56
2023-05-14T23:45:12.937Z,101224.63
2023-05-14T23:55:15.975Z,101226.75
